This is the latest recevied weather packets stored in our database for station/object IU1FIL-23. If no packets are shown the sender has not sent any weather packets the latest 10 day(s).
| Time | Temp. | Humidity | Pressure | Rain* | Wind** | Luminosity | Snow |
|---|---|---|---|---|---|---|---|
| 1778243146 | 27.78° C | 34% | 1017 hPa | - | - | - | - |
| 1778242542 | 27.78° C | 37% | 1017 hPa | - | - | - | - |
| 1778241938 | 27.78° C | 38% | 1017.1 hPa | - | - | - | - |
| 1778241334 | 27.78° C | 39% | 1017.1 hPa | - | - | - | - |
| 1778240729 | 27.78° C | 41% | 1017 hPa | - | - | - | - |
| 1778240125 | 27.78° C | 40% | 1017.2 hPa | - | - | - | - |
| 1778239521 | 27.78° C | 45% | 1017.2 hPa | - | - | - | - |
| 1778238917 | 27.22° C | 48% | 1017.2 hPa | - | - | - | - |
| 1778238348 | 26.67° C | 50% | 1017.4 hPa | - | - | - | - |
| 1778238303 | 26.67° C | 50% | 1017.4 hPa | - | - | - | - |
| 1778238133 | 25.56° C | 51% | 1017.4 hPa | - | - | - | - |
| 1778237517 | 22.78° C | 55% | 1017.3 hPa | - | - | - | - |
| 1778236913 | 19.44° C | 61% | 1017.3 hPa | - | - | - | - |
| 1778236309 | 19.44° C | 64% | 1017.2 hPa | - | - | - | - |
| 1778235705 | 20° C | 65% | 1017.3 hPa | - | - | - | - |
| 1778235101 | 20° C | 65% | 1017.4 hPa | - | - | - | - |
| 1778234530 | 20.56° C | 65% | 1017.4 hPa | - | - | - | - |
| 1778234496 | 20.56° C | 65% | 1017.4 hPa | - | - | - | - |
| 1778233892 | 21.67° C | 64% | 1017.3 hPa | - | - | - | - |
| 1778233288 | 21.67° C | 67% | 1017.3 hPa | - | - | - | - |
| 1778232684 | 21.67° C | 69% | 1017.2 hPa | - | - | - | - |
| 1778232080 | 20.56° C | 71% | 1017.1 hPa | - | - | - | - |
| 1778231476 | 20.56° C | 73% | 1017 hPa | - | - | - | - |
| 1778230865 | 20° C | 79% | 1017 hPa | - | - | - | - |
| 1778230253 | 20° C | 79% | 1016.9 hPa | - | - | - | - |
* Rain since midnight (hover to see other rain measurements)
** Current wind speed in m/s (hover to see current wind gust speed)